createdAt,value
2018-03-18T00:02:34.311Z,99.90
2018-03-18T00:05:02.542Z,99.90
2018-03-18T00:07:29.995Z,99.90
2018-03-18T00:09:57.541Z,99.90
2018-03-18T00:12:24.973Z,99.90
2018-03-18T00:14:53.219Z,99.90
2018-03-18T00:17:20.677Z,99.90
2018-03-18T00:19:48.238Z,99.90
2018-03-18T00:22:15.664Z,99.90
2018-03-18T00:24:43.116Z,99.90
2018-03-18T00:27:10.551Z,99.90
2018-03-18T00:29:38.003Z,99.90
2018-03-18T00:32:06.205Z,99.90
2018-03-18T00:34:34.433Z,99.90
2018-03-18T00:37:01.868Z,99.90
2018-03-18T00:39:29.347Z,99.90
2018-03-18T00:41:56.816Z,99.90
2018-03-18T00:44:24.357Z,99.90
2018-03-18T00:46:51.843Z,99.90
2018-03-18T00:49:19.304Z,99.90
2018-03-18T00:52:03.930Z,99.90
2018-03-18T00:54:31.424Z,99.90
2018-03-18T00:56:58.860Z,99.90
2018-03-18T00:59:26.291Z,99.90
2018-03-18T01:01:54.524Z,99.90
2018-03-18T01:04:21.971Z,99.90
2018-03-18T01:06:49.469Z,99.90
2018-03-18T01:09:17.703Z,99.90
2018-03-18T01:11:45.143Z,99.90
2018-03-18T01:14:12.645Z,99.90
2018-03-18T01:16:40.103Z,99.90
2018-03-18T01:19:07.531Z,99.90
2018-03-18T01:21:34.992Z,99.90
2018-03-18T01:24:02.436Z,99.90
2018-03-18T01:26:30.699Z,99.90
2018-03-18T01:28:58.204Z,99.90
2018-03-18T01:31:25.636Z,99.90
2018-03-18T01:33:53.868Z,99.90
2018-03-18T01:36:21.316Z,99.90
2018-03-18T01:38:48.791Z,99.90
2018-03-18T01:41:16.235Z,99.90
2018-03-18T01:43:43.733Z,99.90
2018-03-18T01:46:11.163Z,99.90
2018-03-18T01:48:38.602Z,99.90
2018-03-18T01:51:06.102Z,99.90
2018-03-18T01:53:33.636Z,99.90
2018-03-18T01:56:01.064Z,99.90
2018-03-18T01:58:29.300Z,99.90
2018-03-18T02:00:56.743Z,99.90
2018-03-18T02:03:24.176Z,99.90
2018-03-18T02:05:52.392Z,99.90
2018-03-18T02:08:19.938Z,99.80
2018-03-18T02:10:47.427Z,99.40
2018-03-18T02:13:14.864Z,99.60
2018-03-18T02:15:42.344Z,99.80
2018-03-18T02:18:09.802Z,99.90
2018-03-18T02:20:37.267Z,99.90
2018-03-18T02:23:04.718Z,99.90
2018-03-18T02:25:32.191Z,99.80
2018-03-18T02:27:59.683Z,99.90
2018-03-18T02:30:27.132Z,99.80
2018-03-18T02:32:54.678Z,99.80
2018-03-18T02:35:22.134Z,99.90
2018-03-18T02:37:49.592Z,99.80
2018-03-18T02:40:17.031Z,99.50
2018-03-18T02:42:44.470Z,99.90
2018-03-18T02:45:12.675Z,99.50
2018-03-18T02:47:40.984Z,99.50
2018-03-18T02:50:08.431Z,99.70
2018-03-18T02:52:35.881Z,99.70
2018-03-18T02:55:03.367Z,99.60
2018-03-18T02:57:30.825Z,99.70
2018-03-18T02:59:58.314Z,99.50
2018-03-18T03:02:25.765Z,99.90
2018-03-18T03:04:53.201Z,99.90
2018-03-18T03:07:20.660Z,99.60
2018-03-18T03:09:48.136Z,99.70
2018-03-18T03:12:15.600Z,99.50
2018-03-18T03:14:43.056Z,99.90
2018-03-18T03:17:10.536Z,99.90
2018-03-18T03:19:37.975Z,99.90
2018-03-18T03:22:05.419Z,99.80
2018-03-18T03:24:32.879Z,99.90
2018-03-18T03:27:00.383Z,99.90
2018-03-18T03:29:28.824Z,99.90
2018-03-18T03:31:56.314Z,99.50
2018-03-18T03:34:23.791Z,99.50
2018-03-18T03:36:52.098Z,99.70
2018-03-18T03:39:20.320Z,99.50
2018-03-18T03:41:47.771Z,99.50
2018-03-18T03:44:15.220Z,99.90
2018-03-18T03:46:42.670Z,99.90
2018-03-18T03:49:10.171Z,99.70
2018-03-18T03:51:37.644Z,99.50
2018-03-18T03:54:05.096Z,99.90
2018-03-18T03:56:32.535Z,99.90
2018-03-18T03:59:00.026Z,99.40
2018-03-18T04:01:27.492Z,99.50
2018-03-18T04:03:54.959Z,99.10
2018-03-18T04:06:22.430Z,98.90
2018-03-18T04:08:49.969Z,99.10
2018-03-18T04:11:17.400Z,99.00
2018-03-18T04:13:44.843Z,99.80
2018-03-18T04:16:13.078Z,98.70
2018-03-18T04:18:40.514Z,98.70
2018-03-18T04:21:07.991Z,99.00
2018-03-18T04:23:35.439Z,99.10
2018-03-18T04:26:02.881Z,98.90
2018-03-18T04:28:30.308Z,98.60
2018-03-18T04:30:59.284Z,99.10
2018-03-18T04:33:26.752Z,99.10
2018-03-18T04:35:54.307Z,99.00
2018-03-18T04:38:21.760Z,99.10
2018-03-18T04:40:49.198Z,98.90
2018-03-18T04:43:16.683Z,99.30
2018-03-18T04:45:44.149Z,99.20
2018-03-18T04:48:11.712Z,99.30
2018-03-18T04:50:39.165Z,99.10
2018-03-18T04:53:06.613Z,98.90
2018-03-18T04:55:34.051Z,99.00
2018-03-18T04:58:01.487Z,98.80
2018-03-18T05:00:29.010Z,99.00
2018-03-18T05:02:56.463Z,99.40
2018-03-18T05:05:23.909Z,98.90
2018-03-18T05:07:51.395Z,99.00
2018-03-18T05:10:18.857Z,98.90
2018-03-18T05:12:46.382Z,99.10
2018-03-18T05:15:13.783Z,99.00
2018-03-18T05:17:41.222Z,98.90
2018-03-18T05:20:08.703Z,99.40
2018-03-18T05:22:36.265Z,99.50
2018-03-18T05:25:03.723Z,99.20
2018-03-18T05:27:31.185Z,98.90
2018-03-18T05:29:58.646Z,99.00
2018-03-18T05:32:26.089Z,99.20
2018-03-18T05:34:53.547Z,99.00
2018-03-18T05:37:21.052Z,99.00
2018-03-18T05:39:48.496Z,99.30
2018-03-18T05:42:15.943Z,99.30
2018-03-18T05:44:43.416Z,99.30
2018-03-18T05:47:10.888Z,99.10
2018-03-18T05:49:38.339Z,99.00
2018-03-18T05:52:05.771Z,99.30
2018-03-18T05:54:33.215Z,99.90
2018-03-18T05:57:01.435Z,99.10
2018-03-18T05:59:28.877Z,99.10
2018-03-18T06:01:56.315Z,99.30
2018-03-18T06:04:24.519Z,98.90
2018-03-18T06:06:51.996Z,98.80
2018-03-18T06:09:19.440Z,99.20
2018-03-18T06:11:46.880Z,99.10
2018-03-18T06:14:15.094Z,99.10
2018-03-18T06:16:42.552Z,99.10
2018-03-18T06:19:10.015Z,99.30
2018-03-18T06:21:37.484Z,99.50
2018-03-18T06:24:04.922Z,99.30
2018-03-18T06:26:32.411Z,98.90
2018-03-18T06:28:59.935Z,99.00
2018-03-18T06:31:27.390Z,98.80
2018-03-18T06:33:55.607Z,98.00
2018-03-18T06:36:23.071Z,98.10
2018-03-18T06:38:50.524Z,98.20
2018-03-18T06:41:17.964Z,98.00
2018-03-18T06:43:45.473Z,97.90
2018-03-18T06:46:13.029Z,97.50
2018-03-18T06:48:40.487Z,97.70
2018-03-18T06:51:07.968Z,97.30
2018-03-18T06:53:35.397Z,97.30
2018-03-18T06:56:02.968Z,96.60
2018-03-18T06:58:30.437Z,96.70
2018-03-18T07:00:57.911Z,96.60
2018-03-18T07:03:25.431Z,96.30
2018-03-18T07:05:52.850Z,95.80
2018-03-18T07:08:20.305Z,95.50
2018-03-18T07:10:47.739Z,95.80
2018-03-18T07:13:15.278Z,95.70
2018-03-18T07:15:42.768Z,95.20
2018-03-18T07:18:10.231Z,95.10
2018-03-18T07:20:37.670Z,95.30
2018-03-18T07:23:05.144Z,95.00
2018-03-18T07:25:32.614Z,95.80
2018-03-18T07:28:00.079Z,94.80
2018-03-18T07:30:27.514Z,94.60
2018-03-18T07:32:54.952Z,93.60
2018-03-18T07:35:22.405Z,93.70
2018-03-18T07:37:50.627Z,94.00
2018-03-18T07:40:18.068Z,94.00
2018-03-18T07:42:45.528Z,94.40
2018-03-18T07:45:13.140Z,93.80
2018-03-18T07:47:40.567Z,93.90
2018-03-18T07:50:08.016Z,93.00
2018-03-18T07:52:35.455Z,93.10
2018-03-18T07:55:03.715Z,92.10
2018-03-18T07:57:31.940Z,92.80
2018-03-18T07:59:59.396Z,92.80
2018-03-18T08:02:26.851Z,92.60
2018-03-18T08:04:54.312Z,92.80
2018-03-18T08:07:21.813Z,92.50
2018-03-18T08:09:49.255Z,93.10
2018-03-18T08:12:16.691Z,92.40
2018-03-18T08:14:44.140Z,93.30
2018-03-18T08:17:12.369Z,92.90
2018-03-18T08:19:39.859Z,92.90
2018-03-18T08:22:07.264Z,92.50
2018-03-18T08:24:34.719Z,93.20
2018-03-18T08:27:02.168Z,92.50
2018-03-18T08:29:30.395Z,92.30
2018-03-18T08:31:57.855Z,92.30
2018-03-18T08:34:25.313Z,92.40
2018-03-18T08:36:52.755Z,92.20
2018-03-18T08:39:20.203Z,91.40
2018-03-18T08:41:47.776Z,92.50
2018-03-18T08:44:15.195Z,91.80
2018-03-18T08:46:43.460Z,92.30
2018-03-18T08:49:10.895Z,92.30
2018-03-18T08:51:38.364Z,92.30
2018-03-18T08:54:05.796Z,92.10
2018-03-18T08:56:33.241Z,92.30
2018-03-18T08:59:00.684Z,91.20
2018-03-18T09:01:29.739Z,91.60
2018-03-18T09:03:57.202Z,91.70
2018-03-18T09:06:24.743Z,91.70
2018-03-18T09:08:52.166Z,91.50
2018-03-18T09:11:19.620Z,91.80
2018-03-18T09:13:47.061Z,92.00
2018-03-18T09:16:14.518Z,91.70
2018-03-18T09:18:41.971Z,91.60
2018-03-18T09:21:09.432Z,92.10
2018-03-18T09:23:36.926Z,91.00
2018-03-18T09:26:04.345Z,91.10
2018-03-18T09:28:31.788Z,90.50
2018-03-18T09:30:59.222Z,87.60
2018-03-18T09:33:27.533Z,85.10
2018-03-18T09:35:54.955Z,85.10
2018-03-18T09:38:22.486Z,85.20
2018-03-18T09:40:49.922Z,83.90
2018-03-18T09:43:17.352Z,82.70
2018-03-18T09:45:45.558Z,78.00
2018-03-18T09:48:13.000Z,77.90
2018-03-18T09:50:41.235Z,75.70
2018-03-18T09:53:08.706Z,75.60
2018-03-18T09:55:36.249Z,71.20
2018-03-18T09:58:03.704Z,71.80
2018-03-18T10:00:31.143Z,69.60
2018-03-18T10:02:58.572Z,68.30
2018-03-18T10:05:26.819Z,69.20
2018-03-18T10:07:54.276Z,69.20
2018-03-18T10:10:22.126Z,69.60
2018-03-18T10:12:49.552Z,69.70
2018-03-18T10:15:17.761Z,67.80
2018-03-18T10:17:45.183Z,66.40
2018-03-18T10:20:13.441Z,67.70
2018-03-18T10:22:40.876Z,67.70
2018-03-18T10:25:08.335Z,67.10
2018-03-18T10:27:35.800Z,67.80
2018-03-18T10:30:03.249Z,68.40
2018-03-18T10:32:30.840Z,70.10
2018-03-18T10:34:58.276Z,70.60
2018-03-18T10:37:25.747Z,69.50
2018-03-18T10:39:53.181Z,71.50
2018-03-18T10:42:20.616Z,69.80
2018-03-18T10:44:48.817Z,70.00
2018-03-18T10:47:16.251Z,70.00
2018-03-18T10:49:44.448Z,70.80
2018-03-18T10:52:11.953Z,70.80
2018-03-18T10:54:39.380Z,69.80
2018-03-18T10:57:06.845Z,67.90
2018-03-18T10:59:34.268Z,66.10
2018-03-18T11:02:05.292Z,55.00
2018-03-18T11:04:32.737Z,55.50
2018-03-18T11:07:00.194Z,57.80
2018-03-18T11:09:27.660Z,54.30
2018-03-18T11:11:55.100Z,53.80
2018-03-18T11:14:22.553Z,53.20
2018-03-18T11:16:50.044Z,51.70
2018-03-18T11:19:17.478Z,52.00
2018-03-18T11:21:44.915Z,52.60
2018-03-18T11:24:13.133Z,49.30
2018-03-18T11:26:40.560Z,49.20
2018-03-18T11:29:08.073Z,49.80
2018-03-18T11:31:35.504Z,49.50
2018-03-18T11:34:02.939Z,47.40
2018-03-18T11:36:31.168Z,45.40
2018-03-18T11:38:58.624Z,45.40
2018-03-18T11:41:26.080Z,45.50
2018-03-18T11:43:53.528Z,45.70
2018-03-18T11:46:20.986Z,46.20
2018-03-18T11:48:48.405Z,47.50
2018-03-18T11:51:15.863Z,45.60
2018-03-18T11:53:43.392Z,44.80
2018-03-18T11:56:10.833Z,46.00
2018-03-18T11:58:39.044Z,47.30
2018-03-18T12:01:06.536Z,47.30
2018-03-18T12:03:33.915Z,47.70
2018-03-18T12:06:01.352Z,45.60
2018-03-18T12:08:40.655Z,46.00
2018-03-18T12:11:08.111Z,47.40
2018-03-18T12:13:35.568Z,47.40
2018-03-18T12:16:03.033Z,46.40
2018-03-18T12:18:30.469Z,46.00
2018-03-18T12:20:57.951Z,44.90
2018-03-18T12:23:25.494Z,46.00
2018-03-18T12:25:52.976Z,46.10
2018-03-18T12:28:20.412Z,46.70
2018-03-18T12:30:47.900Z,47.10
2018-03-18T12:33:15.337Z,48.30
2018-03-18T12:35:42.856Z,48.20
2018-03-18T12:38:10.295Z,48.00
2018-03-18T12:40:37.743Z,48.70
2018-03-18T12:43:29.767Z,47.70
2018-03-18T12:45:58.129Z,46.60
2018-03-18T12:48:25.692Z,47.40
2018-03-18T12:50:53.492Z,48.00
2018-03-18T12:53:20.940Z,47.00
2018-03-18T12:55:48.380Z,46.70
2018-03-18T12:58:15.859Z,47.70
2018-03-18T13:00:43.284Z,47.70
2018-03-18T13:03:10.707Z,48.00
2018-03-18T13:05:38.157Z,48.10
2018-03-18T13:08:05.612Z,48.20
2018-03-18T13:10:33.039Z,49.40
2018-03-18T13:13:00.483Z,49.40
2018-03-18T13:15:28.703Z,49.10
2018-03-18T13:17:56.267Z,49.00
2018-03-18T13:20:23.715Z,50.50
2018-03-18T13:22:51.135Z,50.80
2018-03-18T13:25:19.396Z,49.30
2018-03-18T13:27:46.816Z,49.30
2018-03-18T13:30:14.292Z,50.10
2018-03-18T13:32:41.757Z,48.40
2018-03-18T13:35:09.219Z,48.40
2018-03-18T13:37:36.760Z,47.70
2018-03-18T13:40:04.244Z,48.10
2018-03-18T13:42:31.688Z,48.50
2018-03-18T13:44:59.111Z,48.40
2018-03-18T13:47:27.353Z,46.70
2018-03-18T13:49:54.775Z,46.70
2018-03-18T13:52:22.211Z,44.50
2018-03-18T13:54:50.454Z,45.60
2018-03-18T13:57:17.909Z,45.60
2018-03-18T13:59:45.333Z,46.80
2018-03-18T14:02:12.832Z,46.30
2018-03-18T14:04:40.370Z,47.50
2018-03-18T14:07:07.847Z,47.60
2018-03-18T14:09:35.340Z,48.20
2018-03-18T14:12:02.789Z,48.40
2018-03-18T14:14:30.239Z,46.70
2018-03-18T14:16:57.673Z,46.60
2018-03-18T14:19:25.115Z,46.70
2018-03-18T14:21:53.315Z,49.00
2018-03-18T14:24:20.769Z,49.00
2018-03-18T14:26:48.953Z,48.90
2018-03-18T14:29:16.427Z,48.90
2018-03-18T14:31:43.879Z,50.10
2018-03-18T14:34:11.364Z,49.30
2018-03-18T14:36:38.810Z,48.70
2018-03-18T14:39:06.235Z,49.30
2018-03-18T14:41:34.464Z,52.20
2018-03-18T14:44:01.915Z,52.10
2018-03-18T14:46:29.335Z,50.20
2018-03-18T14:48:57.532Z,45.90
2018-03-18T14:51:25.023Z,45.90
2018-03-18T14:53:52.465Z,45.40
2018-03-18T14:56:19.952Z,45.40
2018-03-18T14:58:47.375Z,44.00
2018-03-18T15:01:14.897Z,45.00
2018-03-18T15:03:42.307Z,44.40
2018-03-18T15:06:09.747Z,44.20
2018-03-18T15:08:38.360Z,45.50
2018-03-18T15:11:05.791Z,45.50
2018-03-18T15:13:34.129Z,44.50
2018-03-18T15:16:01.556Z,44.50
2018-03-18T15:18:28.995Z,45.90
2018-03-18T15:20:57.224Z,46.50
2018-03-18T15:23:24.659Z,46.40
2018-03-18T15:25:52.083Z,46.60
2018-03-18T15:28:20.323Z,48.10
2018-03-18T15:30:47.752Z,48.10
2018-03-18T15:33:15.324Z,47.50
2018-03-18T15:35:42.807Z,47.80
2018-03-18T15:38:10.272Z,47.80
2018-03-18T15:40:37.732Z,47.80
2018-03-18T15:43:05.173Z,48.00
2018-03-18T15:45:32.737Z,47.00
2018-03-18T15:48:00.296Z,46.30
2018-03-18T15:50:27.703Z,46.00
2018-03-18T15:52:55.140Z,47.50
2018-03-18T15:55:22.577Z,47.30
2018-03-18T15:57:50.000Z,47.90
2018-03-18T16:00:18.249Z,49.90
2018-03-18T16:02:45.698Z,49.40
2018-03-18T16:05:13.176Z,50.20
2018-03-18T16:07:40.709Z,49.90
2018-03-18T16:10:08.137Z,51.20
2018-03-18T16:12:36.390Z,51.50
2018-03-18T16:15:03.828Z,51.50
2018-03-18T16:17:31.300Z,51.80
2018-03-18T16:19:58.748Z,52.30
2018-03-18T16:22:26.225Z,52.60
2018-03-18T16:24:53.752Z,52.80
2018-03-18T16:27:21.228Z,52.40
2018-03-18T16:30:00.455Z,52.60
2018-03-18T16:32:27.916Z,52.60
2018-03-18T16:34:55.366Z,52.70
2018-03-18T16:37:22.843Z,52.40
2018-03-18T16:39:50.288Z,52.80
2018-03-18T16:42:17.772Z,53.20
2018-03-18T16:44:45.228Z,53.70
2018-03-18T16:47:12.674Z,53.10
2018-03-18T16:49:40.154Z,52.90
2018-03-18T16:52:07.597Z,53.40
2018-03-18T16:54:35.023Z,53.10
2018-03-18T16:57:03.264Z,53.50
2018-03-18T16:59:30.799Z,53.50
2018-03-18T17:01:58.233Z,53.80
2018-03-18T17:04:26.455Z,54.10
2018-03-18T17:06:53.901Z,54.10
2018-03-18T17:09:21.339Z,54.50
2018-03-18T17:11:49.539Z,54.30
2018-03-18T17:14:17.019Z,54.30
2018-03-18T17:16:44.572Z,54.30
2018-03-18T17:19:12.007Z,54.60
2018-03-18T17:21:40.200Z,55.50
2018-03-18T17:24:07.643Z,55.50
2018-03-18T17:26:35.876Z,55.30
2018-03-18T17:29:03.318Z,55.30
2018-03-18T17:31:30.796Z,55.00
2018-03-18T17:33:58.256Z,55.00
2018-03-18T17:36:25.699Z,55.20
2018-03-18T17:38:53.180Z,55.70
2018-03-18T17:41:20.711Z,55.70
2018-03-18T17:43:48.191Z,55.80
2018-03-18T17:46:27.533Z,55.60
2018-03-18T17:49:07.063Z,55.50
2018-03-18T17:54:46.252Z,56.00
2018-03-18T17:57:14.505Z,56.00
2018-03-18T17:59:42.712Z,56.00
2018-03-18T18:02:10.920Z,55.70
2018-03-18T18:04:38.364Z,55.70
2018-03-18T18:07:05.807Z,55.60
2018-03-18T18:09:34.056Z,56.00
2018-03-18T18:12:01.483Z,56.00
2018-03-18T18:14:28.927Z,56.00
2018-03-18T18:16:56.433Z,55.70
2018-03-18T18:19:23.894Z,55.60
2018-03-18T18:21:51.318Z,56.10
2018-03-18T18:24:18.744Z,56.30
2018-03-18T18:26:46.960Z,55.90
2018-03-18T18:29:14.520Z,55.90
2018-03-18T18:31:41.951Z,55.90
2018-03-18T18:34:10.285Z,55.90
2018-03-18T18:36:37.728Z,55.80
2018-03-18T18:39:05.176Z,55.90
2018-03-18T18:41:32.616Z,55.60
2018-03-18T18:44:00.816Z,55.80
2018-03-18T18:46:28.280Z,55.80
2018-03-18T18:48:55.750Z,56.40
2018-03-18T18:51:23.207Z,55.60
2018-03-18T18:53:50.701Z,56.20
2018-03-18T18:56:18.131Z,56.00
2018-03-18T18:58:45.590Z,56.00
2018-03-18T19:01:13.089Z,56.10
2018-03-18T19:03:40.548Z,56.20
2018-03-18T19:06:08.010Z,56.30
2018-03-18T19:08:35.456Z,56.10
2018-03-18T19:11:02.914Z,56.10
2018-03-18T19:13:30.341Z,56.00
2018-03-18T19:15:58.640Z,55.90
2018-03-18T19:18:26.203Z,55.90
2018-03-18T19:20:53.696Z,56.30
2018-03-18T19:23:21.143Z,56.50
2018-03-18T19:25:48.631Z,56.50
2018-03-18T19:28:16.107Z,56.80
2018-03-18T19:30:43.625Z,56.80
2018-03-18T19:33:11.056Z,57.10
2018-03-18T19:35:39.278Z,57.10
2018-03-18T19:38:06.758Z,57.10
2018-03-18T19:40:34.277Z,57.20
2018-03-18T19:43:01.696Z,57.20
2018-03-18T19:45:29.151Z,57.80
2018-03-18T19:47:56.661Z,57.80
2018-03-18T19:50:24.094Z,57.20
2018-03-18T19:52:52.301Z,58.00
2018-03-18T19:55:19.815Z,58.00
2018-03-18T19:57:47.326Z,58.30
2018-03-18T20:00:14.824Z,57.90
2018-03-18T20:02:42.276Z,58.30
2018-03-18T20:05:09.740Z,58.60
2018-03-18T20:07:37.173Z,59.00
2018-03-18T20:10:04.657Z,58.50
2018-03-18T20:12:32.137Z,58.70
2018-03-18T20:14:59.577Z,58.40
2018-03-18T20:17:27.049Z,58.70
2018-03-18T20:19:54.536Z,58.50
2018-03-18T20:22:21.967Z,58.40
2018-03-18T20:24:49.428Z,58.50
2018-03-18T20:27:16.868Z,58.40
2018-03-18T20:29:44.426Z,58.40
2018-03-18T20:32:11.872Z,58.90
2018-03-18T20:34:39.372Z,58.40
2018-03-18T20:37:06.821Z,58.50
2018-03-18T20:39:34.274Z,58.70
2018-03-18T20:42:01.760Z,59.30
2018-03-18T20:44:29.196Z,58.50
2018-03-18T20:46:56.656Z,58.80
2018-03-18T20:49:24.095Z,59.00
2018-03-18T20:51:52.404Z,59.30
2018-03-18T20:54:19.858Z,59.30
2018-03-18T20:56:47.350Z,58.80
2018-03-18T20:59:14.788Z,59.00
2018-03-18T21:01:42.223Z,58.90
2018-03-18T21:04:10.451Z,59.20
2018-03-18T21:06:37.883Z,59.20
2018-03-18T21:09:05.448Z,59.20
2018-03-18T21:11:32.870Z,59.10
2018-03-18T21:14:00.423Z,58.80
2018-03-18T21:16:27.872Z,60.00
2018-03-18T21:18:55.548Z,59.10
2018-03-18T21:21:22.983Z,59.20
2018-03-18T21:23:50.420Z,59.50
2018-03-18T21:26:18.224Z,59.20
2018-03-18T21:28:45.696Z,59.20
2018-03-18T21:31:13.173Z,59.40
2018-03-18T21:33:40.704Z,60.00
2018-03-18T21:36:08.161Z,58.90
2018-03-18T21:38:35.607Z,59.00
2018-03-18T21:41:03.120Z,59.20
2018-03-18T21:43:30.648Z,59.40
2018-03-18T21:45:58.090Z,59.40
2018-03-18T21:48:25.615Z,59.30
2018-03-18T21:50:53.827Z,59.30
2018-03-18T21:53:21.257Z,59.30
2018-03-18T21:55:49.479Z,59.50
2018-03-18T21:58:16.920Z,59.50
2018-03-18T22:00:44.368Z,59.10
2018-03-18T22:03:12.583Z,59.50
2018-03-18T22:05:40.068Z,59.50
2018-03-18T22:08:07.503Z,60.20
2018-03-18T22:10:35.051Z,60.00
2018-03-18T22:13:02.467Z,60.90
2018-03-18T22:15:29.909Z,60.60
2018-03-18T22:17:57.359Z,60.70
2018-03-18T22:20:24.794Z,60.30
2018-03-18T22:22:52.244Z,60.30
2018-03-18T22:25:20.432Z,60.10
2018-03-18T22:27:47.920Z,60.10
2018-03-18T22:30:15.364Z,60.40
2018-03-18T22:32:42.843Z,60.60
2018-03-18T22:35:10.361Z,60.30
2018-03-18T22:37:38.565Z,59.90
2018-03-18T22:40:06.052Z,59.90
2018-03-18T22:42:33.501Z,60.50
2018-03-18T22:45:00.941Z,60.20
2018-03-18T22:47:28.388Z,60.20
2018-03-18T22:49:56.584Z,60.30
2018-03-18T22:52:24.057Z,60.20
2018-03-18T22:54:51.500Z,60.30
2018-03-18T22:57:19.005Z,59.90
2018-03-18T22:59:46.447Z,60.40
2018-03-18T23:02:13.880Z,60.60
2018-03-18T23:04:41.331Z,61.10
2018-03-18T23:07:09.559Z,61.30
2018-03-18T23:09:37.000Z,61.30
2018-03-18T23:12:04.454Z,61.60
2018-03-18T23:14:31.931Z,60.40
2018-03-18T23:16:59.399Z,61.90
2018-03-18T23:19:26.836Z,62.40
2018-03-18T23:21:54.271Z,61.30
2018-03-18T23:24:22.501Z,61.90
2018-03-18T23:26:49.952Z,61.90
2018-03-18T23:29:17.428Z,61.50
2018-03-18T23:31:44.864Z,61.20
2018-03-18T23:34:12.341Z,62.10
2018-03-18T23:36:39.779Z,62.40
2018-03-18T23:39:07.247Z,62.20
2018-03-18T23:41:34.727Z,62.60
2018-03-18T23:44:02.184Z,63.00
2018-03-18T23:46:29.658Z,62.60
2018-03-18T23:48:57.111Z,63.00
2018-03-18T23:51:24.568Z,63.30
2018-03-18T23:53:52.008Z,62.50
2018-03-18T23:56:19.526Z,63.20
2018-03-18T23:58:46.962Z,63.40
